createdAt,value
2023-04-03T00:01:08.724Z,8.00
2023-04-03T00:02:29.367Z,8.00
2023-04-03T00:03:49.605Z,8.00
2023-04-03T00:05:10.549Z,8.00
2023-04-03T00:06:31.053Z,8.00
2023-04-03T00:07:51.729Z,8.00
2023-04-03T00:09:14.006Z,8.00
2023-04-03T00:10:35.077Z,8.00
2023-04-03T00:11:55.911Z,8.00
2023-04-03T00:13:17.698Z,7.90
2023-04-03T00:14:38.525Z,7.90
2023-04-03T00:15:59.331Z,7.80
2023-04-03T00:17:19.996Z,7.80
2023-04-03T00:18:40.956Z,7.80
2023-04-03T00:20:01.787Z,7.90
2023-04-03T00:21:22.453Z,7.90
2023-04-03T00:22:42.939Z,7.90
2023-04-03T00:24:03.792Z,7.80
2023-04-03T00:25:25.571Z,7.80
2023-04-03T00:26:46.311Z,7.80
2023-04-03T00:28:07.429Z,7.80
2023-04-03T00:29:27.919Z,7.80
2023-04-03T00:30:49.971Z,7.70
2023-04-03T00:32:10.390Z,7.80
2023-04-03T00:33:30.982Z,7.70
2023-04-03T00:34:51.625Z,7.80
2023-04-03T00:36:13.778Z,7.80
2023-04-03T00:37:34.742Z,7.80
2023-04-03T00:38:55.373Z,7.60
2023-04-03T00:40:16.563Z,7.60
2023-04-03T00:41:38.238Z,7.60
2023-04-03T00:43:00.186Z,7.60
2023-04-03T00:44:22.723Z,7.60
2023-04-03T00:45:45.346Z,7.60
2023-04-03T00:47:09.559Z,7.60
2023-04-03T00:48:32.984Z,7.60
2023-04-03T00:49:54.771Z,7.50
2023-04-03T00:51:17.915Z,7.40
2023-04-03T00:52:39.154Z,7.40
2023-04-03T00:54:01.342Z,7.40
2023-04-03T00:55:22.084Z,7.40
2023-04-03T00:56:44.589Z,7.40
2023-04-03T00:58:05.933Z,7.40
2023-04-03T00:59:29.918Z,7.30
2023-04-03T01:00:55.162Z,7.10
2023-04-03T01:02:15.969Z,7.20
2023-04-03T01:03:36.926Z,7.00
2023-04-03T01:04:57.530Z,7.10
2023-04-03T01:06:21.331Z,7.20
2023-04-03T01:07:42.211Z,7.20
2023-04-03T01:09:04.254Z,7.20
2023-04-03T01:10:25.005Z,7.10
2023-04-03T01:11:46.819Z,7.10
2023-04-03T01:13:20.606Z,7.10
2023-04-03T01:15:50.613Z,7.00
2023-04-03T01:17:30.644Z,7.10
2023-04-03T01:18:51.058Z,7.10
2023-04-03T01:20:53.344Z,7.10
2023-04-03T01:22:19.118Z,7.10
2023-04-03T01:23:40.702Z,7.10
2023-04-03T01:25:01.618Z,7.10
2023-04-03T01:26:22.546Z,7.10
2023-04-03T01:27:44.514Z,7.10
2023-04-03T01:29:05.437Z,7.10
2023-04-03T01:30:31.445Z,7.10
2023-04-03T01:31:54.692Z,7.10
2023-04-03T01:33:15.552Z,7.10
2023-04-03T01:34:36.162Z,7.10
2023-04-03T01:35:56.975Z,7.00
2023-04-03T01:37:17.307Z,7.00
2023-04-03T01:38:37.598Z,7.00
2023-04-03T01:39:58.251Z,6.90
2023-04-03T01:41:19.034Z,6.90
2023-04-03T01:42:39.608Z,6.90
2023-04-03T01:44:00.140Z,6.90
2023-04-03T01:45:20.853Z,6.90
2023-04-03T01:46:41.569Z,6.90
2023-04-03T01:48:04.427Z,6.80
2023-04-03T01:49:24.928Z,6.90
2023-04-03T01:50:45.778Z,6.90
2023-04-03T01:52:06.477Z,6.90
2023-04-03T01:53:27.469Z,6.90
2023-04-03T01:54:48.135Z,6.90
2023-04-03T01:56:09.281Z,6.90
2023-04-03T01:57:29.661Z,6.90
2023-04-03T01:58:50.150Z,6.90
2023-04-03T02:00:11.661Z,6.90
2023-04-03T02:01:32.316Z,6.90
2023-04-03T02:02:52.903Z,6.80
2023-04-03T02:04:15.049Z,6.80
2023-04-03T02:05:36.128Z,6.70
2023-04-03T02:06:56.426Z,6.60
2023-04-03T02:08:17.159Z,6.60
2023-04-03T02:09:37.830Z,6.60
2023-04-03T02:10:58.734Z,6.60
2023-04-03T02:12:19.282Z,6.60
2023-04-03T02:13:41.549Z,6.70
2023-04-03T02:15:02.044Z,6.60
2023-04-03T02:16:22.866Z,6.60
2023-04-03T02:17:43.600Z,6.60
2023-04-03T02:19:04.528Z,6.70
2023-04-03T02:20:26.882Z,6.70
2023-04-03T02:21:47.431Z,6.50
2023-04-03T02:23:08.251Z,6.60
2023-04-03T02:25:39.162Z,6.60
2023-04-03T02:26:59.623Z,6.70
2023-04-03T02:28:20.245Z,6.60
2023-04-03T02:29:40.989Z,6.60
2023-04-03T02:31:01.609Z,6.60
2023-04-03T02:32:22.282Z,6.70
2023-04-03T02:33:43.171Z,6.70
2023-04-03T02:35:04.480Z,6.60
2023-04-03T02:36:26.762Z,6.70
2023-04-03T02:37:47.434Z,6.70
2023-04-03T02:39:08.135Z,6.70
2023-04-03T02:40:28.817Z,6.80
2023-04-03T02:41:49.620Z,6.70
2023-04-03T02:43:10.332Z,6.80
2023-04-03T02:44:30.712Z,6.70
2023-04-03T02:45:51.255Z,6.70
2023-04-03T02:47:11.927Z,6.70
2023-04-03T02:48:32.890Z,6.70
2023-04-03T02:49:53.577Z,6.60
2023-04-03T02:51:14.446Z,6.50
2023-04-03T02:52:36.335Z,6.40
2023-04-03T02:53:56.725Z,6.30
2023-04-03T02:55:16.491Z,6.30
2023-04-03T02:56:37.425Z,6.20
2023-04-03T02:57:57.953Z,6.20
2023-04-03T02:59:18.872Z,6.30
2023-04-03T03:00:39.693Z,6.30
2023-04-03T03:02:00.638Z,6.30
2023-04-03T03:03:21.395Z,6.20
2023-04-03T03:04:42.812Z,6.20
2023-04-03T03:06:04.525Z,6.20
2023-04-03T03:07:25.241Z,6.10
2023-04-03T03:08:47.240Z,6.20
2023-04-03T03:10:08.531Z,6.20
2023-04-03T03:11:29.112Z,6.20
2023-04-03T03:12:50.166Z,6.10
2023-04-03T03:14:10.946Z,6.00
2023-04-03T03:15:31.794Z,6.10
2023-04-03T03:16:52.599Z,6.10
2023-04-03T03:18:13.222Z,6.00
2023-04-03T03:19:33.722Z,6.00
2023-04-03T03:20:55.248Z,5.90
2023-04-03T03:22:15.523Z,6.00
2023-04-03T03:23:36.197Z,5.80
2023-04-03T03:24:58.587Z,5.80
2023-04-03T03:26:19.295Z,5.70
2023-04-03T03:27:39.943Z,5.80
2023-04-03T03:29:00.698Z,5.80
2023-04-03T03:30:21.151Z,5.80
2023-04-03T03:31:42.173Z,5.80
2023-04-03T03:33:02.959Z,5.70
2023-04-03T03:34:23.709Z,5.60
2023-04-03T03:35:44.631Z,5.60
2023-04-03T03:37:05.238Z,5.60
2023-04-03T03:38:26.300Z,5.60
2023-04-03T03:39:46.783Z,5.60
2023-04-03T03:41:09.047Z,5.60
2023-04-03T03:42:29.403Z,5.60
2023-04-03T03:43:50.220Z,5.60
2023-04-03T03:45:22.593Z,5.60
2023-04-03T03:46:43.001Z,5.70
2023-04-03T03:48:03.876Z,5.70
2023-04-03T03:49:24.477Z,5.70
2023-04-03T03:50:45.301Z,5.70
2023-04-03T03:52:06.015Z,5.80
2023-04-03T03:53:26.694Z,5.70
2023-04-03T03:55:59.691Z,5.70
2023-04-03T03:57:21.491Z,5.70
2023-04-03T03:58:42.175Z,5.50
2023-04-03T04:00:02.884Z,5.60
2023-04-03T04:01:23.479Z,5.60
2023-04-03T04:02:44.270Z,5.40
2023-04-03T04:04:04.955Z,5.40
2023-04-03T04:05:21.363Z,5.40
2023-04-03T04:06:42.138Z,5.40
2023-04-03T04:08:02.687Z,5.30
2023-04-03T04:09:23.296Z,5.30
2023-04-03T04:10:44.068Z,5.30
2023-04-03T04:12:05.159Z,5.30
2023-04-03T04:13:27.088Z,5.20
2023-04-03T04:14:43.362Z,5.20
2023-04-03T04:16:04.625Z,5.20
2023-04-03T04:17:25.384Z,5.20
2023-04-03T04:18:46.134Z,5.20
2023-04-03T04:20:07.622Z,5.10
2023-04-03T04:21:28.344Z,5.10
2023-04-03T04:22:49.068Z,5.20
2023-04-03T04:24:09.986Z,5.20
2023-04-03T04:25:30.440Z,5.20
2023-04-03T04:26:50.949Z,5.20
2023-04-03T04:28:11.679Z,5.30
2023-04-03T04:29:33.884Z,5.30
2023-04-03T04:30:54.370Z,5.30
2023-04-03T04:32:15.231Z,5.30
2023-04-03T04:33:41.514Z,5.30
2023-04-03T04:35:02.273Z,5.30
2023-04-03T04:36:23.052Z,5.40
2023-04-03T04:37:43.610Z,5.30
2023-04-03T04:39:04.411Z,5.30
2023-04-03T04:40:25.408Z,5.40
2023-04-03T04:41:45.765Z,5.40
2023-04-03T04:43:06.531Z,5.30
2023-04-03T04:44:27.483Z,5.40
2023-04-03T04:45:49.741Z,5.30
2023-04-03T04:47:10.456Z,5.20
2023-04-03T04:48:32.731Z,4.90
2023-04-03T04:49:53.290Z,4.90
2023-04-03T04:51:13.853Z,4.90
2023-04-03T04:52:34.523Z,4.90
2023-04-03T04:53:56.165Z,5.00
2023-04-03T04:56:14.743Z,5.00
2023-04-03T04:57:35.717Z,5.10
2023-04-03T04:58:56.414Z,5.10
2023-04-03T05:00:17.686Z,5.10
2023-04-03T05:01:40.268Z,5.10
2023-04-03T05:03:02.665Z,5.00
2023-04-03T05:04:23.416Z,4.90
2023-04-03T05:05:44.159Z,4.80
2023-04-03T05:07:07.869Z,4.90
2023-04-03T05:08:28.512Z,4.90
2023-04-03T05:09:49.323Z,4.80
2023-04-03T05:11:10.287Z,4.90
2023-04-03T05:16:59.647Z,4.90
2023-04-03T05:18:24.500Z,5.00
2023-04-03T05:19:45.880Z,5.00
2023-04-03T05:21:09.611Z,5.00
2023-04-03T05:22:34.584Z,4.90
2023-04-03T05:23:57.934Z,5.00
2023-04-03T05:25:21.932Z,5.00
2023-04-03T05:26:43.000Z,5.00
2023-04-03T05:28:05.116Z,5.00
2023-04-03T05:29:25.785Z,4.90
2023-04-03T05:30:46.215Z,4.90
2023-04-03T05:32:06.760Z,5.00
2023-04-03T05:33:30.875Z,5.00
2023-04-03T05:34:51.873Z,4.90
2023-04-03T05:36:12.803Z,4.80
2023-04-03T05:37:33.480Z,4.80
2023-04-03T05:38:54.457Z,4.90
2023-04-03T05:40:16.319Z,4.90
2023-04-03T05:41:38.193Z,4.90
2023-04-03T05:42:59.065Z,4.80
2023-04-03T05:44:19.831Z,4.90
2023-04-03T05:45:40.564Z,5.00
2023-04-03T05:47:01.268Z,5.00
2023-04-03T05:48:21.812Z,4.90
2023-04-03T05:49:44.232Z,4.90
2023-04-03T05:51:05.504Z,5.00
2023-04-03T05:52:28.559Z,5.00
2023-04-03T05:53:49.538Z,5.00
2023-04-03T05:55:10.164Z,5.00
2023-04-03T05:56:30.831Z,4.90
2023-04-03T05:57:51.743Z,5.00
2023-04-03T05:59:12.374Z,5.00
2023-04-03T06:00:33.069Z,5.00
2023-04-03T06:01:53.754Z,5.00
2023-04-03T06:03:14.717Z,5.10
2023-04-03T06:04:35.364Z,5.10
2023-04-03T06:05:57.408Z,5.10
2023-04-03T06:07:19.072Z,5.10
2023-04-03T06:08:39.508Z,5.10
2023-04-03T06:10:04.973Z,5.20
2023-04-03T06:11:26.523Z,5.20
2023-04-03T06:12:47.273Z,5.20
2023-04-03T06:14:08.446Z,5.20
2023-04-03T06:15:29.290Z,5.20
2023-04-03T06:16:49.958Z,5.30
2023-04-03T06:18:10.860Z,5.40
2023-04-03T06:19:31.880Z,5.40
2023-04-03T06:20:52.611Z,5.40
2023-04-03T06:22:14.915Z,5.30
2023-04-03T06:23:35.729Z,5.40
2023-04-03T06:24:56.569Z,5.40
2023-04-03T06:26:17.049Z,5.50
2023-04-03T06:27:37.902Z,5.50
2023-04-03T06:28:58.453Z,5.50
2023-04-03T06:30:19.283Z,5.50
2023-04-03T06:31:39.845Z,5.50
2023-04-03T06:33:00.574Z,5.60
2023-04-03T06:34:21.318Z,5.50
2023-04-03T06:35:42.032Z,5.40
2023-04-03T06:37:02.845Z,5.50
2023-04-03T06:38:25.114Z,5.60
2023-04-03T06:39:45.732Z,5.60
2023-04-03T06:41:06.327Z,5.70
2023-04-03T06:42:27.429Z,5.70
2023-04-03T06:43:48.191Z,5.80
2023-04-03T06:45:09.573Z,5.80
2023-04-03T06:46:32.226Z,5.80
2023-04-03T06:47:53.226Z,5.80
2023-04-03T06:49:15.443Z,5.80
2023-04-03T06:50:35.762Z,5.80
2023-04-03T06:51:56.599Z,5.80
2023-04-03T06:53:17.469Z,5.90
2023-04-03T06:54:39.589Z,5.90
2023-04-03T06:56:00.335Z,5.90
2023-04-03T06:57:21.053Z,6.00
2023-04-03T06:58:41.972Z,6.00
2023-04-03T07:00:03.413Z,6.10
2023-04-03T07:01:26.004Z,6.10
2023-04-03T07:02:46.588Z,6.10
2023-04-03T07:04:07.453Z,6.10
2023-04-03T07:05:28.141Z,6.10
2023-04-03T07:06:49.025Z,6.10
2023-04-03T07:08:09.676Z,6.10
2023-04-03T07:09:30.386Z,6.20
2023-04-03T07:10:52.630Z,6.20
2023-04-03T07:12:13.412Z,6.10
2023-04-03T07:13:34.478Z,6.20
2023-04-03T07:14:55.313Z,6.10
2023-04-03T07:16:15.799Z,6.20
2023-04-03T07:17:36.653Z,6.30
2023-04-03T07:18:57.375Z,6.30
2023-04-03T07:20:18.262Z,6.30
2023-04-03T07:21:38.857Z,6.30
2023-04-03T07:23:01.175Z,6.40
2023-04-03T07:24:22.734Z,6.40
2023-04-03T07:25:44.228Z,6.50
2023-04-03T07:27:06.639Z,6.50
2023-04-03T07:28:27.461Z,6.50
2023-04-03T07:29:48.026Z,6.50
2023-04-03T07:31:12.396Z,6.50
2023-04-03T07:32:33.297Z,6.50
2023-04-03T07:33:54.216Z,6.50
2023-04-03T07:35:14.605Z,6.50
2023-04-03T07:36:35.005Z,6.50
2023-04-03T07:37:55.788Z,6.50
2023-04-03T07:39:16.633Z,6.50
2023-04-03T07:40:37.591Z,6.50
2023-04-03T07:41:58.051Z,6.50
2023-04-03T07:43:21.320Z,6.50
2023-04-03T07:44:41.736Z,6.60
2023-04-03T07:46:02.561Z,6.60
2023-04-03T07:47:23.478Z,6.60
2023-04-03T07:48:44.556Z,6.60
2023-04-03T07:50:05.683Z,6.70
2023-04-03T07:51:26.399Z,6.60
2023-04-03T07:52:47.471Z,6.70
2023-04-03T07:54:08.223Z,6.70
2023-04-03T07:55:29.233Z,6.70
2023-04-03T07:56:50.229Z,6.80
2023-04-03T07:58:11.549Z,6.80
2023-04-03T07:59:33.788Z,6.90
2023-04-03T08:00:54.461Z,6.90
2023-04-03T08:02:15.025Z,6.90
2023-04-03T08:03:35.775Z,7.00
2023-04-03T08:04:57.045Z,7.10
2023-04-03T08:06:21.641Z,7.20
2023-04-03T08:07:46.918Z,7.20
2023-04-03T08:09:07.334Z,7.20
2023-04-03T08:10:27.984Z,7.30
2023-04-03T08:11:48.830Z,7.30
2023-04-03T08:13:10.232Z,7.40
2023-04-03T08:14:33.450Z,7.50
2023-04-03T08:15:54.171Z,7.50
2023-04-03T08:17:15.081Z,7.40
2023-04-03T08:18:35.740Z,7.40
2023-04-03T08:19:56.559Z,7.40
2023-04-03T08:21:17.242Z,7.40
2023-04-03T08:22:38.216Z,7.50
2023-04-03T08:23:59.020Z,7.60
2023-04-03T08:25:19.633Z,7.70
2023-04-03T08:26:40.311Z,7.80
2023-04-03T08:28:01.679Z,7.80
2023-04-03T08:29:22.094Z,7.90
2023-04-03T08:30:44.368Z,7.90
2023-04-03T08:32:05.291Z,8.00
2023-04-03T08:33:26.003Z,8.00
2023-04-03T08:34:46.824Z,8.10
2023-04-03T08:36:09.459Z,8.10
2023-04-03T08:37:30.328Z,8.10
2023-04-03T08:38:52.097Z,8.10
2023-04-03T08:40:16.066Z,8.10
2023-04-03T08:41:38.072Z,8.00
2023-04-03T08:43:09.175Z,8.00
2023-04-03T08:44:39.694Z,8.10
2023-04-03T08:46:04.443Z,8.20
2023-04-03T08:47:38.496Z,8.20
2023-04-03T08:48:59.597Z,8.20
2023-04-03T08:50:21.983Z,8.20
2023-04-03T08:51:47.130Z,8.30
2023-04-03T08:53:13.268Z,8.40
2023-04-03T08:54:35.532Z,8.50
2023-04-03T08:55:56.696Z,8.50
2023-04-03T08:57:17.508Z,8.50
2023-04-03T08:58:42.739Z,8.50
2023-04-03T09:00:08.136Z,8.60
2023-04-03T09:01:35.520Z,8.60
2023-04-03T09:02:57.151Z,8.60
2023-04-03T09:04:18.737Z,8.70
2023-04-03T09:05:43.246Z,8.80
2023-04-03T09:07:07.060Z,8.80
2023-04-03T09:08:28.917Z,8.90
2023-04-03T09:09:49.673Z,8.90
2023-04-03T09:11:15.812Z,8.90
2023-04-03T09:12:39.454Z,9.00
2023-04-03T09:14:03.645Z,9.10
2023-04-03T09:15:37.649Z,9.10
2023-04-03T09:17:03.197Z,9.20
2023-04-03T09:18:28.406Z,9.20
2023-04-03T09:19:55.152Z,9.20
2023-04-03T09:21:19.723Z,9.20
2023-04-03T09:22:49.785Z,9.20
2023-04-03T09:24:14.444Z,9.20
2023-04-03T09:25:38.221Z,9.30
2023-04-03T09:27:02.749Z,9.30
2023-04-03T09:28:23.331Z,9.40
2023-04-03T09:29:45.413Z,9.40
2023-04-03T09:31:18.772Z,9.40
2023-04-03T09:32:41.122Z,9.40
2023-04-03T09:34:04.643Z,9.50
2023-04-03T09:35:32.864Z,9.50
2023-04-03T09:37:05.913Z,9.60
2023-04-03T09:38:26.813Z,9.50
2023-04-03T09:39:51.733Z,9.50
2023-04-03T09:41:17.328Z,9.50
2023-04-03T09:42:44.107Z,9.60
2023-04-03T09:44:21.579Z,9.60
2023-04-03T09:45:42.263Z,9.70
2023-04-03T09:47:19.917Z,9.70
2023-04-03T09:48:55.023Z,9.80
2023-04-03T09:50:23.058Z,9.70
2023-04-03T09:51:43.533Z,9.70
2023-04-03T09:53:08.645Z,9.80
2023-04-03T09:54:37.505Z,9.90
2023-04-03T09:55:58.894Z,9.90
2023-04-03T09:57:19.798Z,9.90
2023-04-03T09:58:49.633Z,10.00
2023-04-03T10:00:22.562Z,10.00
2023-04-03T10:01:58.449Z,10.00
2023-04-03T10:03:25.971Z,10.00
2023-04-03T10:04:50.747Z,10.00
2023-04-03T10:06:23.540Z,10.00
2023-04-03T10:07:48.687Z,10.00
2023-04-03T10:09:19.747Z,10.00
2023-04-03T10:10:40.912Z,10.10
2023-04-03T10:12:03.885Z,10.20
2023-04-03T10:13:24.637Z,10.20
2023-04-03T10:14:56.008Z,10.20
2023-04-03T10:16:19.020Z,10.30
2023-04-03T10:17:51.251Z,10.20
2023-04-03T10:19:35.225Z,10.20
2023-04-03T10:21:00.929Z,10.20
2023-04-03T10:22:26.145Z,10.20
2023-04-03T10:23:49.826Z,10.30
2023-04-03T10:25:18.005Z,10.30
2023-04-03T10:26:46.446Z,10.20
2023-04-03T10:28:11.342Z,10.30
2023-04-03T10:29:41.985Z,10.40
2023-04-03T10:31:07.117Z,10.40
2023-04-03T10:32:43.717Z,10.50
2023-04-03T10:34:07.055Z,10.60
2023-04-03T10:35:43.429Z,10.60
2023-04-03T10:37:12.755Z,10.60
2023-04-03T10:38:40.889Z,10.70
2023-04-03T10:40:03.928Z,10.80
2023-04-03T10:41:29.763Z,10.80
2023-04-03T10:42:54.116Z,10.90
2023-04-03T10:44:20.602Z,11.00
2023-04-03T10:45:54.913Z,11.00
2023-04-03T10:47:17.812Z,11.20
2023-04-03T10:48:48.076Z,11.10
2023-04-03T10:50:24.302Z,11.10
2023-04-03T10:51:47.111Z,11.10
2023-04-03T10:53:16.786Z,11.20
2023-04-03T10:54:39.990Z,11.30
2023-04-03T10:56:06.094Z,11.20
2023-04-03T10:57:26.830Z,11.30
2023-04-03T10:58:50.962Z,11.30
2023-04-03T11:00:19.151Z,11.30
2023-04-03T11:01:42.679Z,11.30
2023-04-03T11:03:06.884Z,11.30
2023-04-03T11:04:30.993Z,11.30
2023-04-03T11:05:54.390Z,11.30
2023-04-03T11:07:19.323Z,11.30
2023-04-03T11:08:44.658Z,11.30
2023-04-03T11:10:11.279Z,11.30
2023-04-03T11:11:34.762Z,11.40
2023-04-03T11:12:59.481Z,11.40
2023-04-03T11:14:26.562Z,11.40
2023-04-03T11:15:47.211Z,11.40
2023-04-03T11:17:15.524Z,11.40
2023-04-03T11:18:40.961Z,11.50
2023-04-03T11:20:07.145Z,11.50
2023-04-03T11:21:30.359Z,11.60
2023-04-03T11:22:53.580Z,11.60
2023-04-03T11:24:21.786Z,11.60
2023-04-03T11:25:45.703Z,11.70
2023-04-03T11:27:06.887Z,11.80
2023-04-03T11:28:27.317Z,11.90
2023-04-03T11:29:48.486Z,11.90
2023-04-03T11:31:24.100Z,12.00
2023-04-03T11:33:10.810Z,12.20
2023-04-03T11:34:35.313Z,12.40
2023-04-03T11:35:59.458Z,12.40
2023-04-03T11:37:28.701Z,12.50
2023-04-03T11:38:51.114Z,12.50
2023-04-03T11:40:22.612Z,12.60
2023-04-03T11:41:43.403Z,12.70
2023-04-03T11:43:07.935Z,12.70
2023-04-03T11:44:35.609Z,12.80
2023-04-03T11:45:59.158Z,12.80
2023-04-03T11:47:47.991Z,12.70
2023-04-03T11:49:48.897Z,12.70
2023-04-03T11:51:51.489Z,12.80
2023-04-03T11:53:32.959Z,12.80
2023-04-03T11:54:54.251Z,12.80
2023-04-03T11:56:32.518Z,12.90
2023-04-03T11:58:12.333Z,12.90
2023-04-03T11:59:38.247Z,12.90
2023-04-03T12:01:07.268Z,13.00
2023-04-03T12:02:51.180Z,12.90
2023-04-03T12:04:16.572Z,12.90
2023-04-03T12:05:37.808Z,13.00
2023-04-03T12:07:09.484Z,12.90
2023-04-03T12:08:30.725Z,13.00
2023-04-03T12:09:58.743Z,12.90
2023-04-03T12:11:26.349Z,13.00
2023-04-03T12:13:02.218Z,13.00
2023-04-03T12:14:24.115Z,13.00
2023-04-03T12:15:54.255Z,13.00
2023-04-03T12:17:22.263Z,13.10
2023-04-03T12:18:44.180Z,13.10
2023-04-03T12:20:51.472Z,13.20
2023-04-03T12:22:14.944Z,13.20
2023-04-03T12:23:37.432Z,13.20
2023-04-03T12:24:57.909Z,13.20
2023-04-03T12:26:23.935Z,13.30
2023-04-03T12:27:45.073Z,13.40
2023-04-03T12:29:15.948Z,13.50
2023-04-03T12:30:36.618Z,13.60
2023-04-03T12:32:07.650Z,13.60
2023-04-03T12:33:38.030Z,13.50
2023-04-03T12:35:07.369Z,13.60
2023-04-03T12:36:35.003Z,13.60
2023-04-03T12:38:29.181Z,13.80
2023-04-03T12:39:55.590Z,13.80
2023-04-03T12:41:22.946Z,13.80
2023-04-03T12:42:57.752Z,14.00
2023-04-03T12:44:43.912Z,14.10
2023-04-03T12:46:08.707Z,14.20
2023-04-03T12:47:32.633Z,14.30
2023-04-03T12:48:54.424Z,14.30
2023-04-03T12:50:20.768Z,14.50
2023-04-03T12:51:43.916Z,14.50
2023-04-03T12:53:07.419Z,14.50
2023-04-03T12:54:33.115Z,14.40
2023-04-03T12:55:55.285Z,14.40
2023-04-03T12:57:20.048Z,14.50
2023-04-03T12:58:40.909Z,14.40
2023-04-03T13:00:20.836Z,14.50
2023-04-03T13:01:41.694Z,14.50
2023-04-03T13:03:03.634Z,14.50
2023-04-03T13:04:24.689Z,14.40
2023-04-03T13:05:45.815Z,14.40
2023-04-03T13:07:06.333Z,14.30
2023-04-03T13:08:26.655Z,14.30
2023-04-03T13:09:56.523Z,14.30
2023-04-03T13:11:17.152Z,14.20
2023-04-03T13:12:47.623Z,14.20
2023-04-03T13:14:17.648Z,14.30
2023-04-03T13:15:44.967Z,14.40
2023-04-03T13:17:11.560Z,14.30
2023-04-03T13:18:34.911Z,14.30
2023-04-03T13:19:55.866Z,14.40
2023-04-03T13:21:19.026Z,14.60
2023-04-03T13:22:41.608Z,14.70
2023-04-03T13:24:14.743Z,14.80
2023-04-03T13:25:38.866Z,14.80
2023-04-03T13:26:59.556Z,14.70
2023-04-03T13:28:21.835Z,14.70
2023-04-03T13:29:42.483Z,14.70
2023-04-03T13:31:08.779Z,14.70
2023-04-03T13:32:31.295Z,14.70
2023-04-03T13:33:56.457Z,14.70
2023-04-03T13:35:32.768Z,14.80
2023-04-03T13:36:58.091Z,14.90
2023-04-03T13:38:25.220Z,14.90
2023-04-03T13:39:46.965Z,15.00
2023-04-03T13:41:27.804Z,15.00
2023-04-03T13:43:00.317Z,15.00
2023-04-03T13:44:30.956Z,14.90
2023-04-03T13:46:14.527Z,15.00
2023-04-03T13:47:41.676Z,15.00
2023-04-03T13:49:19.684Z,15.10
2023-04-03T13:50:56.639Z,15.00
2023-04-03T13:52:24.438Z,15.10
2023-04-03T13:53:46.512Z,15.20
2023-04-03T13:55:24.791Z,15.20
2023-04-03T13:56:47.157Z,15.10
2023-04-03T13:58:23.472Z,15.10
2023-04-03T13:59:44.550Z,15.10
2023-04-03T14:01:15.630Z,15.10
2023-04-03T14:02:36.138Z,15.00
2023-04-03T14:03:59.227Z,14.90
2023-04-03T14:05:19.850Z,14.90
2023-04-03T14:06:40.739Z,14.90
2023-04-03T14:08:01.942Z,15.00
2023-04-03T14:09:24.046Z,15.10
2023-04-03T14:10:44.888Z,15.10
2023-04-03T14:12:09.845Z,15.10
2023-04-03T14:13:34.202Z,15.10
2023-04-03T14:14:54.728Z,15.20
2023-04-03T14:16:16.767Z,15.30
2023-04-03T14:17:37.456Z,15.30
2023-04-03T14:18:59.622Z,15.20
2023-04-03T14:20:23.306Z,15.20
2023-04-03T14:21:44.133Z,15.20
2023-04-03T14:23:04.921Z,15.00
2023-04-03T14:24:25.787Z,15.00
2023-04-03T14:25:46.409Z,15.10
2023-04-03T14:27:14.551Z,15.20
2023-04-03T14:28:35.406Z,15.20
2023-04-03T14:29:58.019Z,15.20
2023-04-03T14:31:19.764Z,15.20
2023-04-03T14:32:40.451Z,15.20
2023-04-03T14:34:02.780Z,15.10
2023-04-03T14:35:24.332Z,15.00
2023-04-03T14:36:45.649Z,15.00
2023-04-03T14:38:06.985Z,14.90
2023-04-03T14:39:27.818Z,15.00
2023-04-03T14:40:48.780Z,15.00
2023-04-03T14:42:14.001Z,15.00
2023-04-03T14:43:35.087Z,14.90
2023-04-03T14:44:56.120Z,14.80
2023-04-03T14:46:19.694Z,14.80
2023-04-03T14:47:43.865Z,14.90
2023-04-03T14:49:13.168Z,14.90
2023-04-03T14:50:33.691Z,14.90
2023-04-03T14:51:54.519Z,14.90
2023-04-03T14:53:16.947Z,14.90
2023-04-03T14:54:37.764Z,14.80
2023-04-03T14:55:58.326Z,14.90
2023-04-03T14:57:19.785Z,14.90
2023-04-03T14:58:40.547Z,14.80
2023-04-03T15:00:01.252Z,14.90
2023-04-03T15:01:21.855Z,15.10
2023-04-03T15:02:42.709Z,15.20
2023-04-03T15:04:12.257Z,15.20
2023-04-03T15:05:32.685Z,15.20
2023-04-03T15:06:53.757Z,15.20
2023-04-03T15:08:20.480Z,15.30
2023-04-03T15:09:41.252Z,15.40
2023-04-03T15:11:01.913Z,15.30
2023-04-03T15:12:22.618Z,15.20
2023-04-03T15:13:43.474Z,15.20
2023-04-03T15:15:04.866Z,15.30
2023-04-03T15:16:25.745Z,15.20
2023-04-03T15:17:46.789Z,15.40
2023-04-03T15:19:08.746Z,15.40
2023-04-03T15:20:30.136Z,15.40
2023-04-03T15:21:50.731Z,15.50
2023-04-03T15:23:12.872Z,15.70
2023-04-03T15:24:33.405Z,15.90
2023-04-03T15:25:54.687Z,16.00
2023-04-03T15:27:15.770Z,15.90
2023-04-03T15:28:38.381Z,15.90
2023-04-03T15:29:59.910Z,15.80
2023-04-03T15:31:20.501Z,15.80
2023-04-03T15:32:41.295Z,15.90
2023-04-03T15:34:02.528Z,15.80
2023-04-03T15:35:25.044Z,16.00
2023-04-03T15:36:45.493Z,16.10
2023-04-03T15:38:06.306Z,16.20
2023-04-03T15:39:27.036Z,16.20
2023-04-03T15:40:47.982Z,16.20
2023-04-03T15:42:08.523Z,16.20
2023-04-03T15:43:29.001Z,15.90
2023-04-03T15:44:49.703Z,15.90
2023-04-03T15:46:10.901Z,16.10
2023-04-03T15:47:31.558Z,16.10
2023-04-03T15:48:52.293Z,16.00
2023-04-03T15:50:13.127Z,15.90
2023-04-03T15:51:35.121Z,16.00
2023-04-03T15:52:55.729Z,15.90
2023-04-03T15:54:16.808Z,16.00
2023-04-03T15:55:40.064Z,15.90
2023-04-03T15:57:00.955Z,15.90
2023-04-03T15:58:21.977Z,16.00
2023-04-03T15:59:43.065Z,16.00
2023-04-03T16:01:07.652Z,16.00
2023-04-03T16:02:28.780Z,16.30
2023-04-03T16:03:49.833Z,16.20
2023-04-03T16:05:11.110Z,16.20
2023-04-03T16:06:31.939Z,16.60
2023-04-03T16:07:54.392Z,16.70
2023-04-03T16:09:15.475Z,16.70
2023-04-03T16:10:37.164Z,16.80
2023-04-03T16:11:58.111Z,16.90
2023-04-03T16:13:18.828Z,16.80
2023-04-03T16:14:39.524Z,16.80
2023-04-03T16:16:01.064Z,16.80
2023-04-03T16:17:21.660Z,16.80
2023-04-03T16:18:42.767Z,16.60
2023-04-03T16:20:04.174Z,16.60
2023-04-03T16:21:25.330Z,16.60
2023-04-03T16:22:46.239Z,16.70
2023-04-03T16:24:08.579Z,16.70
2023-04-03T16:25:29.140Z,16.80
2023-04-03T16:26:49.873Z,16.70
2023-04-03T16:28:11.108Z,16.80
2023-04-03T16:29:31.756Z,16.90
2023-04-03T16:30:52.869Z,16.90
2023-04-03T16:32:14.439Z,16.80
2023-04-03T16:33:35.582Z,16.50
2023-04-03T16:34:56.220Z,16.40
2023-04-03T16:36:16.921Z,16.50
2023-04-03T16:37:37.509Z,16.40
2023-04-03T16:38:58.407Z,16.10
2023-04-03T16:40:20.622Z,16.10
2023-04-03T16:41:41.347Z,16.10
2023-04-03T16:43:02.379Z,16.20
2023-04-03T16:44:23.005Z,16.10
2023-04-03T16:45:43.702Z,16.10
2023-04-03T16:47:04.765Z,16.00
2023-04-03T16:48:25.657Z,16.00
2023-04-03T16:49:46.365Z,15.80
2023-04-03T16:51:07.032Z,15.60
2023-04-03T16:52:28.257Z,15.50
2023-04-03T16:53:49.035Z,15.40
2023-04-03T16:55:09.803Z,15.30
2023-04-03T16:56:31.774Z,15.30
2023-04-03T16:57:52.344Z,15.40
2023-04-03T16:59:13.179Z,15.30
2023-04-03T17:00:34.188Z,15.40
2023-04-03T17:01:55.561Z,15.60
2023-04-03T17:03:17.187Z,15.60
2023-04-03T17:04:37.778Z,15.60
2023-04-03T17:05:58.743Z,15.60
2023-04-03T17:07:19.851Z,15.50
2023-04-03T17:08:40.840Z,15.60
2023-04-03T17:10:01.644Z,15.50
2023-04-03T17:11:22.461Z,15.40
2023-04-03T17:12:45.210Z,15.40
2023-04-03T17:14:06.106Z,15.40
2023-04-03T17:15:26.955Z,15.50
2023-04-03T17:16:48.201Z,15.60
2023-04-03T17:18:09.144Z,15.40
2023-04-03T17:19:30.099Z,15.40
2023-04-03T17:20:55.957Z,15.40
2023-04-03T17:22:16.715Z,15.30
2023-04-03T17:23:44.891Z,15.00
2023-04-03T17:25:10.246Z,15.00
2023-04-03T17:26:31.441Z,15.00
2023-04-03T17:27:59.735Z,15.10
2023-04-03T17:29:32.271Z,14.90
2023-04-03T17:30:54.409Z,15.00
2023-04-03T17:32:36.750Z,14.80
2023-04-03T17:34:00.125Z,14.90
2023-04-03T17:35:28.926Z,14.80
2023-04-03T17:36:54.609Z,14.70
2023-04-03T17:38:15.779Z,14.80
2023-04-03T17:39:36.896Z,14.70
2023-04-03T17:40:57.798Z,14.70
2023-04-03T17:42:18.547Z,14.40
2023-04-03T17:43:40.784Z,14.30
2023-04-03T17:45:01.689Z,14.30
2023-04-03T17:46:23.086Z,14.40
2023-04-03T17:47:43.655Z,14.30
2023-04-03T17:49:04.299Z,14.10
2023-04-03T17:50:25.057Z,13.80
2023-04-03T17:51:45.903Z,13.80
2023-04-03T17:53:06.778Z,13.70
2023-04-03T17:54:27.401Z,13.60
2023-04-03T17:55:48.164Z,13.50
2023-04-03T17:57:08.840Z,13.30
2023-04-03T17:58:29.546Z,13.00
2023-04-03T17:59:51.557Z,12.80
2023-04-03T18:01:14.146Z,12.70
2023-04-03T18:02:35.166Z,12.70
2023-04-03T18:03:56.974Z,12.60
2023-04-03T18:05:17.961Z,12.50
2023-04-03T18:06:40.345Z,12.30
2023-04-03T18:08:01.434Z,12.20
2023-04-03T18:09:25.339Z,12.20
2023-04-03T18:10:45.876Z,12.20
2023-04-03T18:12:07.910Z,12.10
2023-04-03T18:13:28.552Z,12.20
2023-04-03T18:14:51.267Z,12.20
2023-04-03T18:16:13.191Z,12.30
2023-04-03T18:17:33.975Z,12.20
2023-04-03T18:19:06.926Z,12.00
2023-04-03T18:20:35.485Z,11.90